< < Back
Terminal Aerodrome Forecast


Current Version              Previous Versions:   1  2  3  4  5  6  7  8  9  

Terminal Aerodrome Forecast

157
FTUS42 KFFC 182009 AAA
TAFATL
TAF AMD
KATL 182009Z 1820/1924 13006KT P6SM -RA FEW020 BKN040
     FM190400 13005KT 6SM -RA OVC015
     FM190600 13006KT 4SM -SHRA BR OVC005
     FM191400 19010KT 6SM -SHRA BKN010 OVC025 PROB30 1914/1918 3SM
      TSRA BKN010CB OVC012
     FM191800 21010G16KT P6SM BKN025
     FM192200 22010G16KT P6SM BKN035=

Latest METAR

809
SAUS70 KWBC 190100 RRB
MTRATL
METAR KATL 190052Z 07007KT 10SM FEW018 SCT110 BKN200 OVC250 20/18 A2994
RMK AO2 SLP133 T02000183


USA.gov is the U.S. government's official web portal to all federal, state and local government web resources and services.